createdAt,value
2023-04-10T00:01:24.091Z,39.13
2023-04-10T00:03:52.122Z,38.70
2023-04-10T00:06:19.601Z,39.42
2023-04-10T00:08:46.826Z,41.33
2023-04-10T00:11:14.171Z,39.95
2023-04-10T00:13:41.386Z,41.38
2023-04-10T00:16:08.778Z,39.65
2023-04-10T00:18:36.135Z,38.50
2023-04-10T00:21:04.231Z,40.13
2023-04-10T00:23:32.796Z,39.03
2023-04-10T00:26:00.153Z,39.97
2023-04-10T00:28:27.703Z,43.83
2023-04-10T00:30:54.833Z,39.35
2023-04-10T00:33:22.074Z,39.88
2023-04-10T00:35:49.886Z,41.42
2023-04-10T00:38:17.466Z,40.83
2023-04-10T00:40:44.693Z,43.88
2023-04-10T00:43:12.434Z,44.92
2023-04-10T00:45:40.462Z,42.25
2023-04-10T00:48:08.266Z,43.72
2023-04-10T00:50:35.525Z,44.30
2023-04-10T00:53:03.726Z,45.53
2023-04-10T00:55:31.243Z,41.22
2023-04-10T00:57:58.825Z,45.65
2023-04-10T01:00:26.208Z,45.30
2023-04-10T01:02:55.679Z,42.45
2023-04-10T01:05:24.041Z,45.40
2023-04-10T01:08:15.875Z,44.97
2023-04-10T01:11:30.907Z,44.15
2023-04-10T01:14:16.544Z,43.63
2023-04-10T01:16:54.293Z,44.05
2023-04-10T01:20:01.835Z,48.30
2023-04-10T01:22:35.923Z,44.53
2023-04-10T01:25:40.579Z,41.55
2023-04-10T01:28:33.498Z,41.38
2023-04-10T01:31:02.761Z,39.47
2023-04-10T01:33:51.053Z,44.13
2023-04-10T01:36:28.202Z,43.33
2023-04-10T01:38:57.937Z,42.67
2023-04-10T01:41:26.658Z,45.42
2023-04-10T01:43:55.864Z,46.67
2023-04-10T01:46:24.792Z,42.80
2023-04-10T01:48:54.097Z,45.40
2023-04-10T01:51:22.396Z,41.47
2023-04-10T01:53:51.722Z,41.83
2023-04-10T01:56:24.086Z,43.20
2023-04-10T01:58:51.688Z,43.20
2023-04-10T02:01:29.537Z,41.70
2023-04-10T02:03:59.391Z,42.00
2023-04-10T02:06:37.622Z,40.20
2023-04-10T02:09:46.498Z,42.20
2023-04-10T02:12:21.691Z,41.63
2023-04-10T02:14:50.808Z,39.95
2023-04-10T02:17:26.720Z,39.92
2023-04-10T02:19:57.222Z,42.78
2023-04-10T02:22:25.856Z,43.90
2023-04-10T02:24:54.223Z,41.70
2023-04-10T02:27:34.076Z,42.97
2023-04-10T02:30:03.628Z,41.50
2023-04-10T02:32:33.730Z,41.00
2023-04-10T02:35:02.800Z,44.75
2023-04-10T02:37:31.464Z,42.58
2023-04-10T02:40:01.532Z,43.47
2023-04-10T02:42:35.899Z,43.78
2023-04-10T02:45:03.626Z,43.83
2023-04-10T02:47:36.798Z,46.17
2023-04-10T02:50:04.350Z,43.97
2023-04-10T02:52:35.848Z,45.53
2023-04-10T02:55:03.537Z,46.78
2023-04-10T02:57:36.237Z,44.67
2023-04-10T03:00:05.309Z,51.40
2023-04-10T03:02:53.733Z,42.58
2023-04-10T03:05:21.772Z,51.03
2023-04-10T03:07:49.073Z,48.42
2023-04-10T03:10:16.570Z,47.58
2023-04-10T03:12:43.853Z,50.65
2023-04-10T03:15:11.943Z,46.60
2023-04-10T03:17:39.209Z,46.90
2023-04-10T03:20:08.734Z,47.35
2023-04-10T03:22:36.553Z,43.65
2023-04-10T03:25:03.975Z,53.60
2023-04-10T03:27:34.743Z,50.60
2023-04-10T03:30:03.128Z,50.20
2023-04-10T03:32:39.106Z,46.80
2023-04-10T03:35:07.221Z,56.90
2023-04-10T03:37:34.454Z,56.47
2023-04-10T03:40:01.684Z,48.15
2023-04-10T03:42:30.046Z,48.67
2023-04-10T03:44:57.240Z,49.83
2023-04-10T03:47:24.607Z,45.58
2023-04-10T03:49:53.110Z,48.83
2023-04-10T03:52:20.610Z,43.35
2023-04-10T03:54:48.175Z,54.97
2023-04-10T03:57:24.549Z,48.58
2023-04-10T03:59:55.694Z,50.72
2023-04-10T04:02:23.346Z,48.42
2023-04-10T04:04:50.889Z,45.65
2023-04-10T04:07:41.104Z,49.08
2023-04-10T04:10:20.844Z,42.65
2023-04-10T04:13:02.974Z,42.22
2023-04-10T04:15:43.526Z,41.53
2023-04-10T04:18:29.118Z,42.72
2023-04-10T04:21:16.434Z,42.20
2023-04-10T04:24:00.046Z,41.15
2023-04-10T04:26:47.492Z,41.40
2023-04-10T04:29:52.925Z,37.05
2023-04-10T04:32:26.120Z,39.72
2023-04-10T04:35:04.596Z,36.70
2023-04-10T04:38:07.408Z,46.83
2023-04-10T04:40:57.847Z,47.75
2023-04-10T04:43:41.824Z,47.17
2023-04-10T04:46:30.170Z,54.42
2023-04-10T04:49:15.996Z,38.83
2023-04-10T04:52:18.733Z,37.97
2023-04-10T04:54:58.149Z,45.42
2023-04-10T04:57:45.662Z,41.33
2023-04-10T05:00:26.296Z,39.03
2023-04-10T05:02:53.720Z,37.88
2023-04-10T05:05:33.284Z,36.17
2023-04-10T05:08:27.208Z,35.25
2023-04-10T05:11:00.599Z,37.85
2023-04-10T05:14:03.339Z,35.15
2023-04-10T05:16:42.073Z,32.63
2023-04-10T05:19:21.476Z,35.40
2023-04-10T05:22:14.038Z,34.63
2023-04-10T05:24:44.319Z,31.92
2023-04-10T05:27:29.100Z,32.22
2023-04-10T05:30:19.738Z,33.40
2023-04-10T05:33:07.688Z,31.38
2023-04-10T05:36:05.550Z,32.38
2023-04-10T05:38:52.836Z,32.65
2023-04-10T05:41:46.535Z,32.47
2023-04-10T05:44:26.249Z,33.42
2023-04-10T05:47:06.314Z,36.22
2023-04-10T05:50:12.029Z,31.90
2023-04-10T05:52:55.633Z,31.45
2023-04-10T05:55:41.390Z,33.15
2023-04-10T05:58:39.020Z,29.67
2023-04-10T06:01:08.866Z,29.77
2023-04-10T06:03:59.598Z,29.23
2023-04-10T06:06:27.243Z,30.83
2023-04-10T06:08:54.738Z,33.05
2023-04-10T06:11:22.696Z,36.80
2023-04-10T06:13:53.726Z,29.63
2023-04-10T06:16:26.838Z,31.98
2023-04-10T06:18:55.325Z,30.77
2023-04-10T06:21:22.713Z,30.63
2023-04-10T06:23:50.224Z,30.95
2023-04-10T06:26:19.100Z,28.25
2023-04-10T06:28:46.768Z,28.95
2023-04-10T06:31:16.165Z,30.30
2023-04-10T06:33:44.259Z,31.20
2023-04-10T06:36:11.692Z,28.02
2023-04-10T06:38:45.291Z,27.77
2023-04-10T06:41:13.741Z,25.52
2023-04-10T06:43:41.202Z,26.95
2023-04-10T06:46:08.848Z,28.73
2023-04-10T06:48:36.184Z,27.60
2023-04-10T06:51:04.048Z,28.10
2023-04-10T06:53:31.486Z,29.65
2023-04-10T06:56:01.566Z,29.45
2023-04-10T06:58:30.903Z,27.27
2023-04-10T07:00:59.033Z,29.45
2023-04-10T07:03:26.431Z,26.85
2023-04-10T07:05:53.798Z,27.13
2023-04-10T07:08:21.092Z,25.98
2023-04-10T07:10:48.457Z,26.25
2023-04-10T07:13:15.765Z,26.77
2023-04-10T07:15:43.081Z,28.02
2023-04-10T07:18:10.384Z,27.33
2023-04-10T07:20:38.317Z,26.23
2023-04-10T07:23:05.930Z,26.10
2023-04-10T07:25:34.332Z,27.17
2023-04-10T07:28:01.643Z,28.75
2023-04-10T07:30:28.886Z,29.90
2023-04-10T07:32:56.385Z,30.27
2023-04-10T07:35:23.846Z,29.40
2023-04-10T07:37:52.712Z,32.15
2023-04-10T07:40:19.970Z,28.35
2023-04-10T07:42:47.651Z,29.35
2023-04-10T07:45:15.038Z,32.15
2023-04-10T07:47:42.501Z,31.63
2023-04-10T07:50:09.984Z,30.15
2023-04-10T07:52:37.411Z,30.75
2023-04-10T07:55:05.365Z,32.10
2023-04-10T07:57:32.656Z,32.15
2023-04-10T07:59:59.904Z,31.38
2023-04-10T08:02:27.227Z,33.00
2023-04-10T08:04:54.847Z,33.35
2023-04-10T08:07:22.658Z,30.45
2023-04-10T08:09:49.913Z,31.35
2023-04-10T08:12:17.764Z,30.60
2023-04-10T08:14:45.323Z,31.58
2023-04-10T08:17:15.003Z,32.45
2023-04-10T08:19:43.549Z,31.33
2023-04-10T08:22:11.214Z,33.38
2023-04-10T08:24:38.632Z,31.73
2023-04-10T08:27:05.913Z,28.40
2023-04-10T08:29:33.091Z,33.05
2023-04-10T08:32:01.254Z,32.67
2023-04-10T08:34:28.770Z,31.80
2023-04-10T08:36:57.645Z,31.42
2023-04-10T08:39:25.036Z,33.42
2023-04-10T08:41:52.521Z,34.72
2023-04-10T08:44:19.816Z,30.73
2023-04-10T08:46:48.684Z,34.03
2023-04-10T08:49:45.999Z,31.70
2023-04-10T08:52:25.034Z,32.90
2023-04-10T08:54:56.333Z,31.75
2023-04-10T08:57:24.310Z,36.13
2023-04-10T08:59:52.041Z,31.02
2023-04-10T09:02:20.354Z,34.20
2023-04-10T09:04:55.403Z,34.15
2023-04-10T09:07:23.527Z,31.83
2023-04-10T09:09:50.961Z,30.17
2023-04-10T09:12:18.203Z,31.23
2023-04-10T09:14:45.604Z,35.03
2023-04-10T09:17:24.783Z,34.45
2023-04-10T09:19:56.349Z,32.88
2023-04-10T09:22:36.547Z,33.95
2023-04-10T09:25:05.156Z,33.13
2023-04-10T09:27:35.698Z,33.95
2023-04-10T09:32:46.705Z,30.60
2023-04-10T09:35:16.397Z,31.98
2023-04-10T09:37:46.556Z,32.47
2023-04-10T09:40:21.757Z,31.75
2023-04-10T09:42:49.122Z,34.13
2023-04-10T09:45:20.248Z,35.35
2023-04-10T09:48:08.337Z,32.78
2023-04-10T09:50:41.210Z,32.38
2023-04-10T09:53:11.451Z,30.23
2023-04-10T09:55:39.608Z,29.17
2023-04-10T09:58:07.827Z,29.45
2023-04-10T10:00:43.751Z,31.75
2023-04-10T10:03:21.128Z,31.10
2023-04-10T10:05:52.782Z,32.65
2023-04-10T10:08:21.612Z,30.70
2023-04-10T10:10:53.765Z,29.83
2023-04-10T10:13:54.985Z,30.20
2023-04-10T10:16:50.030Z,30.70
2023-04-10T10:19:37.397Z,30.77
2023-04-10T10:22:05.649Z,31.50
2023-04-10T10:24:35.021Z,30.45
2023-04-10T10:27:04.559Z,30.73
2023-04-10T10:29:34.924Z,31.48
2023-04-10T10:32:05.993Z,31.02
2023-04-10T10:34:33.904Z,30.67
2023-04-10T10:37:02.708Z,32.47
2023-04-10T10:39:47.920Z,33.60
2023-04-10T10:42:53.401Z,31.33
2023-04-10T10:45:38.148Z,34.30
2023-04-10T10:48:07.453Z,33.28
2023-04-10T10:50:58.981Z,33.88
2023-04-10T10:53:36.841Z,31.73
2023-04-10T10:56:19.336Z,35.15
2023-04-10T10:58:56.306Z,32.55
2023-04-10T11:01:24.215Z,32.60
2023-04-10T11:03:51.800Z,31.33
2023-04-10T11:06:50.182Z,33.70
2023-04-10T11:09:48.685Z,32.50
2023-04-10T11:12:19.330Z,32.35
2023-04-10T11:14:59.271Z,31.23
2023-04-10T11:17:51.792Z,32.72
2023-04-10T11:20:27.460Z,31.05
2023-04-10T11:23:12.735Z,31.13
2023-04-10T11:25:52.068Z,32.50
2023-04-10T11:28:41.169Z,33.53
2023-04-10T11:31:37.912Z,32.92
2023-04-10T11:34:10.703Z,33.05
2023-04-10T11:36:44.774Z,34.05
2023-04-10T11:39:20.716Z,33.45
2023-04-10T11:41:52.653Z,32.63
2023-04-10T11:44:25.930Z,33.30
2023-04-10T11:46:54.401Z,33.85
2023-04-10T11:49:28.182Z,37.28
2023-04-10T11:51:55.999Z,37.13
2023-04-10T11:54:28.625Z,37.00
2023-04-10T11:57:13.109Z,36.53
2023-04-10T11:59:40.814Z,34.63
2023-04-10T12:02:16.051Z,35.22
2023-04-10T12:04:44.649Z,36.47
2023-04-10T12:07:12.188Z,35.45
2023-04-10T12:09:39.581Z,35.25
2023-04-10T12:12:08.366Z,35.65
2023-04-10T12:14:39.575Z,32.75
2023-04-10T12:17:10.108Z,31.45
2023-04-10T12:19:39.468Z,36.50
2023-04-10T12:22:07.825Z,36.28
2023-04-10T12:24:49.657Z,36.10
2023-04-10T12:27:27.077Z,35.58
2023-04-10T12:29:58.096Z,38.97
2023-04-10T12:32:27.768Z,37.20
2023-04-10T12:34:58.370Z,36.03
2023-04-10T12:37:46.678Z,35.38
2023-04-10T12:40:14.949Z,37.13
2023-04-10T12:42:43.546Z,35.83
2023-04-10T12:45:13.958Z,39.03
2023-04-10T12:47:52.628Z,35.00
2023-04-10T12:50:21.254Z,35.72
2023-04-10T12:53:09.433Z,36.67
2023-04-10T12:55:37.614Z,40.10
2023-04-10T12:58:20.757Z,38.35
2023-04-10T13:00:48.578Z,38.53
2023-04-10T13:03:16.425Z,36.10
2023-04-10T13:05:44.621Z,38.70
2023-04-10T13:08:12.222Z,37.63
2023-04-10T13:10:40.647Z,41.95
2023-04-10T13:13:08.500Z,41.22
2023-04-10T13:15:35.820Z,41.30
2023-04-10T13:18:05.760Z,37.40
2023-04-10T13:20:37.963Z,39.28
2023-04-10T13:23:06.033Z,38.95
2023-04-10T13:25:37.036Z,39.25
2023-04-10T13:28:10.164Z,41.17
2023-04-10T13:30:42.477Z,37.28
2023-04-10T13:33:10.426Z,38.53
2023-04-10T13:35:40.140Z,38.67
2023-04-10T13:38:09.438Z,40.75
2023-04-10T13:40:36.967Z,37.85
2023-04-10T13:43:06.472Z,36.70
2023-04-10T13:45:34.958Z,34.90
2023-04-10T13:48:02.499Z,35.78
2023-04-10T13:50:30.038Z,33.80
2023-04-10T13:52:57.305Z,33.55
2023-04-10T13:55:24.697Z,32.95
2023-04-10T13:57:52.396Z,33.10
2023-04-10T14:00:19.709Z,30.83
2023-04-10T14:02:47.081Z,33.00
2023-04-10T14:05:14.548Z,33.35
2023-04-10T14:07:41.836Z,32.15
2023-04-10T14:10:09.952Z,34.72
2023-04-10T14:12:37.916Z,34.13
2023-04-10T14:15:06.046Z,35.75
2023-04-10T14:17:34.066Z,35.55
2023-04-10T14:20:01.820Z,36.15
2023-04-10T14:22:30.356Z,32.55
2023-04-10T14:25:09.259Z,36.65
2023-04-10T14:27:39.522Z,34.30
2023-04-10T14:30:07.862Z,36.00
2023-04-10T14:32:35.521Z,31.70
2023-04-10T14:35:02.840Z,35.13
2023-04-10T14:37:30.106Z,33.45
2023-04-10T14:39:57.394Z,31.25
2023-04-10T14:42:24.818Z,31.50
2023-04-10T14:44:52.103Z,29.67
2023-04-10T14:47:19.495Z,30.95
2023-04-10T14:49:46.739Z,30.02
2023-04-10T14:52:14.087Z,32.88
2023-04-10T14:54:41.386Z,32.35
2023-04-10T14:57:09.885Z,32.33
2023-04-10T14:59:37.285Z,29.95
2023-04-10T15:02:04.697Z,28.60
2023-04-10T15:04:32.145Z,29.73
2023-04-10T15:06:59.494Z,28.88
2023-04-10T15:09:27.524Z,31.27
2023-04-10T15:11:56.944Z,28.70
2023-04-10T15:14:24.264Z,29.40
2023-04-10T15:16:53.976Z,29.35
2023-04-10T15:19:21.611Z,26.00
2023-04-10T15:21:48.968Z,29.00
2023-04-10T15:24:16.300Z,27.05
2023-04-10T15:26:45.881Z,30.38
2023-04-10T15:29:14.003Z,28.43
2023-04-10T15:31:41.706Z,29.40
2023-04-10T15:34:10.443Z,29.60
2023-04-10T15:36:37.779Z,27.63
2023-04-10T15:39:05.320Z,29.40
2023-04-10T15:41:33.240Z,30.10
2023-04-10T15:44:00.697Z,28.75
2023-04-10T15:46:29.179Z,28.85
2023-04-10T15:48:56.452Z,29.75
2023-04-10T15:51:23.700Z,29.83
2023-04-10T15:53:51.094Z,29.13
2023-04-10T15:56:18.258Z,29.05
2023-04-10T15:58:45.529Z,28.67
2023-04-10T16:01:12.837Z,31.17
2023-04-10T16:03:40.908Z,28.85
2023-04-10T16:06:08.858Z,28.70
2023-04-10T16:08:36.265Z,28.00
2023-04-10T16:11:03.770Z,29.63
2023-04-10T16:13:31.108Z,31.60
2023-04-10T16:15:58.468Z,26.95
2023-04-10T16:18:25.828Z,29.95
2023-04-10T16:20:53.200Z,31.83
2023-04-10T16:23:20.568Z,29.17
2023-04-10T16:25:47.828Z,27.65
2023-04-10T16:28:15.123Z,28.63
2023-04-10T16:30:42.443Z,32.60
2023-04-10T16:33:09.832Z,27.92
2023-04-10T16:35:37.121Z,28.92
2023-04-10T16:38:04.396Z,32.63
2023-04-10T16:40:33.022Z,30.70
2023-04-10T16:43:02.079Z,29.50
2023-04-10T16:45:29.762Z,30.35
2023-04-10T16:47:57.068Z,32.90
2023-04-10T16:50:24.361Z,30.10
2023-04-10T16:52:51.681Z,29.55
2023-04-10T16:55:18.987Z,29.52
2023-04-10T16:57:46.695Z,29.67
2023-04-10T17:00:14.493Z,30.50
2023-04-10T17:02:43.139Z,29.80
2023-04-10T17:05:11.456Z,29.58
2023-04-10T17:07:38.679Z,30.20
2023-04-10T17:10:06.537Z,30.23
2023-04-10T17:12:33.994Z,31.65
2023-04-10T17:15:01.391Z,29.30
2023-04-10T17:17:28.820Z,29.77
2023-04-10T17:19:56.647Z,29.17
2023-04-10T17:22:24.037Z,28.42
2023-04-10T17:24:51.404Z,30.80
2023-04-10T17:27:19.050Z,30.60
2023-04-10T17:29:46.355Z,30.40
2023-04-10T17:32:13.894Z,29.45
2023-04-10T17:34:41.222Z,31.15
2023-04-10T17:37:08.571Z,30.90
2023-04-10T17:39:35.873Z,29.90
2023-04-10T17:42:03.424Z,31.52
2023-04-10T17:44:31.407Z,31.17
2023-04-10T17:46:58.840Z,29.55
2023-04-10T17:49:26.548Z,30.23
2023-04-10T17:51:53.884Z,31.02
2023-04-10T17:54:21.051Z,32.17
2023-04-10T17:56:48.490Z,30.88
2023-04-10T17:59:15.774Z,32.67
2023-04-10T18:01:43.204Z,31.73
2023-04-10T18:04:10.861Z,32.58
2023-04-10T18:06:38.234Z,33.00
2023-04-10T18:09:06.024Z,33.28
2023-04-10T18:11:33.365Z,36.15
2023-04-10T18:14:00.660Z,33.15
2023-04-10T18:16:27.948Z,34.00
2023-04-10T18:18:55.619Z,34.63
2023-04-10T18:21:23.263Z,31.27
2023-04-10T18:23:50.554Z,32.50
2023-04-10T18:26:21.030Z,34.80
2023-04-10T18:28:48.480Z,33.47
2023-04-10T18:31:16.808Z,35.33
2023-04-10T18:33:45.468Z,29.50
2023-04-10T18:36:14.220Z,30.17
2023-04-10T18:38:43.921Z,35.45
2023-04-10T18:41:11.442Z,35.03
2023-04-10T18:43:39.211Z,31.10
2023-04-10T18:46:07.117Z,31.00
2023-04-10T18:48:36.074Z,32.38
2023-04-10T18:51:03.533Z,33.33
2023-04-10T18:53:31.090Z,30.83
2023-04-10T18:55:58.507Z,32.60
2023-04-10T18:58:25.987Z,31.52
2023-04-10T19:00:54.284Z,33.67
2023-04-10T19:03:21.577Z,33.40
2023-04-10T19:05:48.948Z,29.23
2023-04-10T19:08:17.210Z,34.70
2023-04-10T19:10:44.523Z,33.63
2023-04-10T19:13:12.925Z,37.80
2023-04-10T19:15:47.912Z,37.17
2023-04-10T19:18:16.527Z,38.42
2023-04-10T19:20:52.049Z,38.88
2023-04-10T19:23:20.911Z,33.97
2023-04-10T19:25:55.253Z,34.08
2023-04-10T19:28:24.589Z,38.05
2023-04-10T19:30:52.812Z,35.65
2023-04-10T19:33:20.616Z,33.92
2023-04-10T19:35:47.981Z,34.45
2023-04-10T19:38:15.264Z,34.45
2023-04-10T19:40:44.426Z,34.17
2023-04-10T19:43:12.464Z,36.17
2023-04-10T19:45:40.487Z,35.95
2023-04-10T19:48:09.657Z,35.38
2023-04-10T19:50:37.262Z,37.22
2023-04-10T19:53:05.228Z,41.53
2023-04-10T19:55:32.836Z,36.17
2023-04-10T19:58:00.330Z,34.50
2023-04-10T20:00:27.614Z,36.70
2023-04-10T20:02:55.190Z,40.42
2023-04-10T20:05:22.613Z,40.83
2023-04-10T20:07:50.486Z,37.55
2023-04-10T20:10:17.785Z,40.13
2023-04-10T20:12:45.430Z,42.70
2023-04-10T20:15:12.979Z,40.75
2023-04-10T20:17:40.877Z,38.00
2023-04-10T20:20:09.172Z,40.70
2023-04-10T20:22:36.565Z,41.38
2023-04-10T20:25:04.074Z,39.55
2023-04-10T20:27:31.539Z,40.55
2023-04-10T20:29:58.802Z,40.05
2023-04-10T20:32:26.113Z,37.20
2023-04-10T20:34:53.303Z,37.13
2023-04-10T20:37:22.021Z,37.85
2023-04-10T20:39:49.749Z,37.60
2023-04-10T20:42:17.246Z,38.50
2023-04-10T20:44:44.574Z,35.50
2023-04-10T20:47:11.896Z,40.40
2023-04-10T20:49:39.300Z,40.35
2023-04-10T20:52:07.264Z,42.63
2023-04-10T20:54:34.681Z,39.33
2023-04-10T20:57:02.097Z,38.50
2023-04-10T20:59:33.505Z,38.38
2023-04-10T21:02:01.103Z,38.13
2023-04-10T21:04:28.542Z,37.08
2023-04-10T21:06:55.922Z,37.17
2023-04-10T21:09:23.146Z,38.65
2023-04-10T21:11:50.426Z,34.58
2023-04-10T21:14:17.618Z,36.05
2023-04-10T21:16:46.031Z,33.58
2023-04-10T21:19:14.117Z,33.60
2023-04-10T21:21:41.436Z,36.03
2023-04-10T21:24:08.728Z,34.80
2023-04-10T21:26:35.908Z,35.47
2023-04-10T21:29:03.197Z,34.22
2023-04-10T21:31:30.785Z,33.20
2023-04-10T21:33:58.024Z,30.42
2023-04-10T21:36:26.604Z,30.63
2023-04-10T21:38:54.087Z,30.52
2023-04-10T21:41:21.783Z,28.42
2023-04-10T21:43:49.170Z,28.75
2023-04-10T21:46:16.534Z,32.25
2023-04-10T21:48:43.915Z,29.17
2023-04-10T21:51:11.162Z,31.10
2023-04-10T21:53:38.404Z,32.38
2023-04-10T21:56:06.108Z,31.80
2023-04-10T21:58:33.413Z,30.92
2023-04-10T22:01:01.222Z,30.00
2023-04-10T22:03:28.783Z,33.05
2023-04-10T22:05:56.082Z,30.38
2023-04-10T22:08:23.369Z,29.90
2023-04-10T22:10:51.058Z,27.27
2023-04-10T22:13:30.308Z,31.00
2023-04-10T22:15:59.982Z,29.15
2023-04-10T22:18:27.298Z,31.95
2023-04-10T22:20:54.536Z,30.48
2023-04-10T22:23:21.762Z,30.70
2023-04-10T22:25:49.059Z,32.20
2023-04-10T22:28:16.232Z,33.35
2023-04-10T22:30:43.435Z,35.20
2023-04-10T22:33:12.066Z,36.10
2023-04-10T22:35:39.407Z,40.47
2023-04-10T22:38:07.824Z,60.78
2023-04-10T22:40:35.411Z,39.90
2023-04-10T22:43:02.738Z,33.55
2023-04-10T22:45:30.032Z,32.85
2023-04-10T22:47:57.589Z,30.13
2023-04-10T22:50:24.884Z,29.58
2023-04-10T22:52:52.293Z,28.08
2023-04-10T22:55:19.712Z,26.30
2023-04-10T22:57:49.863Z,27.15
2023-04-10T23:00:17.340Z,28.63
2023-04-10T23:02:44.615Z,30.05
2023-04-10T23:05:11.879Z,26.55
2023-04-10T23:07:39.086Z,31.25
2023-04-10T23:10:07.401Z,31.70
2023-04-10T23:12:34.661Z,34.25
2023-04-10T23:15:01.833Z,33.15
2023-04-10T23:17:29.084Z,33.85
2023-04-10T23:19:56.333Z,34.30
2023-04-10T23:22:23.621Z,37.30
2023-04-10T23:24:55.057Z,33.28
2023-04-10T23:27:22.337Z,34.33
2023-04-10T23:29:50.219Z,33.50
2023-04-10T23:32:17.408Z,34.08
2023-04-10T23:34:44.685Z,36.35
2023-04-10T23:37:11.924Z,32.40
2023-04-10T23:39:39.748Z,37.17
2023-04-10T23:42:06.976Z,36.97
2023-04-10T23:44:34.321Z,34.47
2023-04-10T23:47:01.581Z,38.25
2023-04-10T23:49:29.145Z,35.78
2023-04-10T23:51:56.299Z,33.50
2023-04-10T23:54:23.556Z,31.40
2023-04-10T23:56:50.687Z,33.90
2023-04-10T23:59:19.190Z,39.92
